createdAt,value
2023-02-20T00:01:18.512Z,3.50
2023-02-20T00:03:46.494Z,3.67
2023-02-20T00:06:13.501Z,3.08
2023-02-20T00:08:41.200Z,3.53
2023-02-20T00:11:08.084Z,3.47
2023-02-20T00:13:35.043Z,3.40
2023-02-20T00:16:01.865Z,3.43
2023-02-20T00:18:28.614Z,3.08
2023-02-20T00:20:55.249Z,3.33
2023-02-20T00:23:21.851Z,3.00
2023-02-20T00:25:48.426Z,2.95
2023-02-20T00:28:15.063Z,3.20
2023-02-20T00:30:41.801Z,3.22
2023-02-20T00:33:08.439Z,3.05
2023-02-20T00:35:35.107Z,3.85
2023-02-20T00:38:01.921Z,3.20
2023-02-20T00:40:28.488Z,2.93
2023-02-20T00:42:55.139Z,2.80
2023-02-20T00:45:21.964Z,2.97
2023-02-20T00:47:48.638Z,3.00
2023-02-20T00:50:17.355Z,2.65
2023-02-20T00:52:44.712Z,2.33
2023-02-20T00:55:11.723Z,2.47
2023-02-20T00:57:38.436Z,3.10
2023-02-20T01:00:08.018Z,2.58
2023-02-20T01:02:34.692Z,2.60
2023-02-20T01:05:01.419Z,2.10
2023-02-20T01:07:28.852Z,2.00
2023-02-20T01:09:55.436Z,3.10
2023-02-20T01:12:22.089Z,2.15
2023-02-20T01:14:48.624Z,2.45
2023-02-20T01:17:15.484Z,2.30
2023-02-20T01:19:43.576Z,1.73
2023-02-20T01:22:10.342Z,2.33
2023-02-20T01:24:37.008Z,1.70
2023-02-20T01:27:03.768Z,1.77
2023-02-20T01:29:30.472Z,1.60
2023-02-20T01:31:58.932Z,1.70
2023-02-20T01:34:25.561Z,2.17
2023-02-20T01:36:54.146Z,1.85
2023-02-20T01:39:26.219Z,1.67
2023-02-20T01:41:57.638Z,1.70
2023-02-20T01:44:29.589Z,1.70
2023-02-20T01:47:00.981Z,1.73
2023-02-20T01:49:35.835Z,1.35
2023-02-20T01:52:12.512Z,1.63
2023-02-20T01:54:42.319Z,1.50
2023-02-20T01:57:14.661Z,1.30
2023-02-20T01:59:42.720Z,1.40
2023-02-20T02:02:10.451Z,1.52
2023-02-20T02:04:39.910Z,1.33
2023-02-20T02:07:06.667Z,1.30
2023-02-20T02:09:49.838Z,1.30
2023-02-20T02:12:16.487Z,1.23
2023-02-20T02:14:43.069Z,1.92
2023-02-20T02:17:32.101Z,2.22
2023-02-20T02:20:02.631Z,1.30
2023-02-20T02:23:03.417Z,1.02
2023-02-20T02:25:34.670Z,1.00
2023-02-20T02:28:22.656Z,1.10
2023-02-20T02:31:08.182Z,0.90
2023-02-20T02:34:02.478Z,1.10
2023-02-20T02:36:36.162Z,1.08
2023-02-20T02:39:23.871Z,1.10
2023-02-20T02:42:15.351Z,1.20
2023-02-20T02:45:00.492Z,0.90
2023-02-20T02:47:35.303Z,0.90
2023-02-20T02:50:15.232Z,0.90
2023-02-20T02:52:51.330Z,0.85
2023-02-20T02:55:36.525Z,0.90
2023-02-20T02:58:04.865Z,0.90
2023-02-20T03:00:41.203Z,0.90
2023-02-20T03:03:10.787Z,0.80
2023-02-20T03:06:09.739Z,1.10
2023-02-20T03:08:57.930Z,0.80
2023-02-20T03:11:28.086Z,0.88
2023-02-20T03:14:20.543Z,0.70
2023-02-20T03:17:08.166Z,0.80
2023-02-20T03:19:44.214Z,1.00
2023-02-20T03:22:18.689Z,0.70
2023-02-20T03:24:57.293Z,0.95
2023-02-20T03:27:53.723Z,0.70
2023-02-20T03:30:22.822Z,0.77
2023-02-20T03:33:12.449Z,1.10
2023-02-20T03:36:01.153Z,1.30
2023-02-20T03:38:48.102Z,1.23
2023-02-20T03:41:35.105Z,1.30
2023-02-20T03:44:06.772Z,1.00
2023-02-20T03:46:37.505Z,0.90
2023-02-20T03:49:19.260Z,1.38
2023-02-20T03:51:47.236Z,1.30
2023-02-20T03:54:28.625Z,1.23
2023-02-20T03:57:02.023Z,1.10
2023-02-20T03:59:36.196Z,1.10
2023-02-20T04:02:08.317Z,0.90
2023-02-20T04:04:41.054Z,1.10
2023-02-20T04:07:12.409Z,0.90
2023-02-20T04:09:43.520Z,0.90
2023-02-20T04:12:21.105Z,1.05
2023-02-20T04:14:50.034Z,1.00
2023-02-20T04:17:22.124Z,1.00
2023-02-20T04:19:48.851Z,1.20
2023-02-20T04:22:22.663Z,1.63
2023-02-20T04:24:59.100Z,1.40
2023-02-20T04:27:29.285Z,1.52
2023-02-20T04:29:57.424Z,1.30
2023-02-20T04:32:24.427Z,1.50
2023-02-20T04:34:52.340Z,1.30
2023-02-20T04:37:20.051Z,2.05
2023-02-20T04:39:49.796Z,1.98
2023-02-20T04:42:17.481Z,1.90
2023-02-20T04:44:44.262Z,1.70
2023-02-20T04:47:16.632Z,1.65
2023-02-20T04:49:44.206Z,1.80
2023-02-20T04:52:12.695Z,1.60
2023-02-20T04:54:39.961Z,1.60
2023-02-20T04:57:08.596Z,1.70
2023-02-20T04:59:35.889Z,1.80
2023-02-20T05:02:02.707Z,1.90
2023-02-20T05:04:29.660Z,2.00
2023-02-20T05:06:57.585Z,2.25
2023-02-20T05:09:24.351Z,2.50
2023-02-20T05:11:51.208Z,2.53
2023-02-20T05:14:17.991Z,2.78
2023-02-20T05:16:45.677Z,2.70
2023-02-20T05:19:13.971Z,2.75
2023-02-20T05:22:03.715Z,2.63
2023-02-20T05:24:32.151Z,2.80
2023-02-20T05:26:59.271Z,2.58
2023-02-20T05:29:26.104Z,2.88
2023-02-20T05:31:52.912Z,2.75
2023-02-20T05:34:22.525Z,2.80
2023-02-20T05:36:49.135Z,2.80
2023-02-20T05:39:15.720Z,2.78
2023-02-20T05:41:43.091Z,2.17
2023-02-20T05:44:09.804Z,1.95
2023-02-20T05:46:41.552Z,2.23
2023-02-20T05:49:09.441Z,3.40
2023-02-20T05:51:36.278Z,3.83
2023-02-20T05:54:03.525Z,3.83
2023-02-20T05:56:30.348Z,2.67
2023-02-20T05:58:56.963Z,3.60
2023-02-20T06:01:26.137Z,3.97
2023-02-20T06:03:53.077Z,2.75
2023-02-20T06:06:20.888Z,3.25
2023-02-20T06:08:48.454Z,3.13
2023-02-20T06:11:15.724Z,3.40
2023-02-20T06:13:44.196Z,3.15
2023-02-20T06:16:11.973Z,3.67
2023-02-20T06:18:40.508Z,3.40
2023-02-20T06:21:09.049Z,2.92
2023-02-20T06:23:39.643Z,2.73
2023-02-20T06:26:07.070Z,2.88
2023-02-20T06:28:34.042Z,2.65
2023-02-20T06:31:02.025Z,2.83
2023-02-20T06:33:29.614Z,3.78
2023-02-20T06:35:56.515Z,3.90
2023-02-20T06:38:23.655Z,2.92
2023-02-20T06:40:50.875Z,3.35
2023-02-20T06:43:17.430Z,3.40
2023-02-20T06:45:44.495Z,3.22
2023-02-20T06:48:11.329Z,3.67
2023-02-20T06:50:37.985Z,3.25
2023-02-20T06:53:04.555Z,2.80
2023-02-20T06:55:31.318Z,3.63
2023-02-20T06:57:58.406Z,3.60
2023-02-20T07:00:25.996Z,2.90
2023-02-20T07:02:52.726Z,2.80
2023-02-20T07:05:19.464Z,3.38
2023-02-20T07:07:46.051Z,2.85
2023-02-20T07:10:12.739Z,3.85
2023-02-20T07:12:39.735Z,3.07
2023-02-20T07:15:08.053Z,3.55
2023-02-20T07:17:34.749Z,5.57
2023-02-20T07:20:01.418Z,7.47
2023-02-20T07:22:28.086Z,5.30
2023-02-20T07:24:55.250Z,3.00
2023-02-20T07:27:22.610Z,2.40
2023-02-20T07:29:51.063Z,2.20
2023-02-20T07:32:20.503Z,2.35
2023-02-20T07:35:02.372Z,2.35
2023-02-20T07:37:30.941Z,2.43
2023-02-20T07:39:57.640Z,2.22
2023-02-20T07:42:24.309Z,2.13
2023-02-20T07:44:58.663Z,2.50
2023-02-20T07:47:25.356Z,3.17
2023-02-20T07:49:52.032Z,1.93
2023-02-20T07:52:18.696Z,1.90
2023-02-20T07:54:45.241Z,1.83
2023-02-20T07:57:11.940Z,1.75
2023-02-20T07:59:38.694Z,1.90
2023-02-20T08:02:05.379Z,1.43
2023-02-20T08:04:31.916Z,1.60
2023-02-20T08:06:58.524Z,1.60
2023-02-20T08:09:25.081Z,1.67
2023-02-20T08:11:51.880Z,1.92
2023-02-20T08:14:18.767Z,2.80
2023-02-20T08:16:45.410Z,3.80
2023-02-20T08:19:12.074Z,1.60
2023-02-20T08:21:38.703Z,1.73
2023-02-20T08:24:06.503Z,1.40
2023-02-20T08:26:34.856Z,1.03
2023-02-20T08:29:01.565Z,1.08
2023-02-20T08:31:32.630Z,1.33
2023-02-20T08:34:00.281Z,0.82
2023-02-20T08:36:26.976Z,1.00
2023-02-20T08:38:54.879Z,1.03
2023-02-20T08:41:21.629Z,0.90
2023-02-20T08:43:48.471Z,1.20
2023-02-20T08:46:15.561Z,1.13
2023-02-20T08:48:42.975Z,1.20
2023-02-20T08:51:09.800Z,1.10
2023-02-20T08:53:38.487Z,1.13
2023-02-20T08:56:06.794Z,1.65
2023-02-20T08:58:33.498Z,1.10
2023-02-20T09:01:00.202Z,1.30
2023-02-20T09:03:27.298Z,1.10
2023-02-20T09:05:53.974Z,2.33
2023-02-20T09:08:20.664Z,1.92
2023-02-20T09:10:47.547Z,1.33
2023-02-20T09:13:14.426Z,1.92
2023-02-20T09:15:41.167Z,1.70
2023-02-20T09:18:11.245Z,1.50
2023-02-20T09:20:38.417Z,2.38
2023-02-20T09:23:06.377Z,1.40
2023-02-20T09:25:33.221Z,1.35
2023-02-20T09:27:59.910Z,1.97
2023-02-20T09:30:26.857Z,1.45
2023-02-20T09:32:54.466Z,2.20
2023-02-20T09:35:27.371Z,1.10
2023-02-20T09:37:54.009Z,1.55
2023-02-20T09:40:30.036Z,1.70
2023-02-20T09:43:15.345Z,1.27
2023-02-20T09:45:49.402Z,1.30
2023-02-20T09:48:30.722Z,1.55
2023-02-20T09:50:57.320Z,1.77
2023-02-20T09:53:42.805Z,1.70
2023-02-20T09:56:16.718Z,1.60
2023-02-20T09:58:47.807Z,1.50
2023-02-20T10:01:20.486Z,1.85
2023-02-20T10:04:02.877Z,1.38
2023-02-20T10:06:33.823Z,1.60
2023-02-20T10:09:02.414Z,1.75
2023-02-20T10:11:34.859Z,1.55
2023-02-20T10:14:23.258Z,1.70
2023-02-20T10:17:03.902Z,1.90
2023-02-20T10:19:47.308Z,1.93
2023-02-20T10:22:36.631Z,1.70
2023-02-20T10:25:11.417Z,1.60
2023-02-20T10:28:06.323Z,1.50
2023-02-20T10:30:38.633Z,2.08
2023-02-20T10:33:23.972Z,1.70
2023-02-20T10:35:54.364Z,2.30
2023-02-20T10:38:25.925Z,1.70
2023-02-20T10:41:07.503Z,1.70
2023-02-20T10:44:00.110Z,1.70
2023-02-20T10:46:47.775Z,1.30
2023-02-20T10:49:22.406Z,1.70
2023-02-20T10:51:55.482Z,1.42
2023-02-20T10:54:35.482Z,1.42
2023-02-20T10:57:23.338Z,1.58
2023-02-20T11:00:06.801Z,1.40
2023-02-20T11:02:39.668Z,1.77
2023-02-20T11:05:17.828Z,1.50
2023-02-20T11:07:44.428Z,1.50
2023-02-20T11:10:11.523Z,1.65
2023-02-20T11:12:51.904Z,1.60
2023-02-20T11:15:25.924Z,1.50
2023-02-20T11:17:55.446Z,1.50
2023-02-20T11:20:41.389Z,1.67
2023-02-20T11:23:08.583Z,1.35
2023-02-20T11:25:37.611Z,1.60
2023-02-20T11:28:10.235Z,1.30
2023-02-20T11:30:42.966Z,1.40
2023-02-20T11:33:19.734Z,1.27
2023-02-20T11:35:49.951Z,1.70
2023-02-20T11:38:22.318Z,1.93
2023-02-20T11:41:00.730Z,1.55
2023-02-20T11:43:31.764Z,1.27
2023-02-20T11:46:15.271Z,1.40
2023-02-20T11:48:58.183Z,1.45
2023-02-20T11:51:43.983Z,1.80
2023-02-20T11:54:25.652Z,1.75
2023-02-20T11:56:57.482Z,1.73
2023-02-20T11:59:32.607Z,1.60
2023-02-20T12:02:17.612Z,1.50
2023-02-20T12:05:05.939Z,1.27
2023-02-20T12:07:45.671Z,1.10
2023-02-20T12:10:46.212Z,1.55
2023-02-20T12:13:15.811Z,1.20
2023-02-20T12:15:45.733Z,1.05
2023-02-20T12:18:46.616Z,1.13
2023-02-20T12:21:25.289Z,1.05
2023-02-20T12:24:06.515Z,1.40
2023-02-20T12:26:46.544Z,1.17
2023-02-20T12:29:38.361Z,1.77
2023-02-20T12:32:19.451Z,1.30
2023-02-20T12:34:46.112Z,0.80
2023-02-20T12:37:32.873Z,1.25
2023-02-20T12:40:25.479Z,1.20
2023-02-20T12:43:10.374Z,0.90
2023-02-20T12:45:51.161Z,1.07
2023-02-20T12:48:48.825Z,0.90
2023-02-20T12:51:34.171Z,1.45
2023-02-20T12:54:36.088Z,1.20
2023-02-20T12:57:26.611Z,1.30
2023-02-20T13:00:02.470Z,1.10
2023-02-20T13:02:44.161Z,1.33
2023-02-20T13:05:20.273Z,1.00
2023-02-20T13:08:01.606Z,0.73
2023-02-20T13:10:32.903Z,1.10
2023-02-20T13:13:00.318Z,1.07
2023-02-20T13:15:52.200Z,1.05
2023-02-20T13:18:24.922Z,1.10
2023-02-20T13:20:58.835Z,1.23
2023-02-20T13:23:31.543Z,1.02
2023-02-20T13:25:58.298Z,0.83
2023-02-20T13:28:44.308Z,1.17
2023-02-20T13:31:22.124Z,1.10
2023-02-20T13:34:15.373Z,0.93
2023-02-20T13:36:46.282Z,1.08
2023-02-20T13:39:19.186Z,1.10
2023-02-20T13:41:54.952Z,0.80
2023-02-20T13:44:36.694Z,1.00
2023-02-20T13:47:25.792Z,0.90
2023-02-20T13:49:58.388Z,1.08
2023-02-20T13:52:40.602Z,0.90
2023-02-20T13:55:13.504Z,1.08
2023-02-20T13:57:54.693Z,1.10
2023-02-20T14:00:51.163Z,0.90
2023-02-20T14:03:28.305Z,0.90
2023-02-20T14:06:02.092Z,1.07
2023-02-20T14:08:28.879Z,1.00
2023-02-20T14:10:55.540Z,1.15
2023-02-20T14:13:38.979Z,0.90
2023-02-20T14:16:26.547Z,0.90
2023-02-20T14:18:57.269Z,0.90
2023-02-20T14:21:24.743Z,1.20
2023-02-20T14:23:53.233Z,1.05
2023-02-20T14:26:19.761Z,1.17
2023-02-20T14:28:49.328Z,1.00
2023-02-20T14:31:24.386Z,1.17
2023-02-20T14:34:07.215Z,1.10
2023-02-20T14:36:50.591Z,1.10
2023-02-20T14:39:29.251Z,0.90
2023-02-20T14:41:59.029Z,1.15
2023-02-20T14:44:26.917Z,1.10
2023-02-20T14:47:14.112Z,0.90
2023-02-20T14:49:41.190Z,1.00
2023-02-20T14:52:10.774Z,1.20
2023-02-20T14:54:39.193Z,1.23
2023-02-20T14:57:06.677Z,1.10
2023-02-20T14:59:40.312Z,0.90
2023-02-20T15:02:32.792Z,1.30
2023-02-20T15:05:04.711Z,1.20
2023-02-20T15:07:32.101Z,1.02
2023-02-20T15:10:04.982Z,1.20
2023-02-20T15:12:39.380Z,1.10
2023-02-20T15:15:13.903Z,1.00
2023-02-20T15:17:42.725Z,1.35
2023-02-20T15:20:21.392Z,1.08
2023-02-20T15:22:48.186Z,1.40
2023-02-20T15:25:31.731Z,1.20
2023-02-20T15:28:23.503Z,0.90
2023-02-20T15:31:08.825Z,2.10
2023-02-20T15:33:37.897Z,1.30
2023-02-20T15:36:05.718Z,1.47
2023-02-20T15:38:34.415Z,2.53
2023-02-20T15:41:03.515Z,1.67
2023-02-20T15:43:47.013Z,1.52
2023-02-20T15:46:15.277Z,1.17
2023-02-20T15:48:42.415Z,1.00
2023-02-20T15:51:10.851Z,1.17
2023-02-20T15:53:38.482Z,1.20
2023-02-20T15:56:05.819Z,1.00
2023-02-20T15:58:37.508Z,1.02
2023-02-20T16:01:05.249Z,1.02
2023-02-20T16:03:49.281Z,1.63
2023-02-20T16:06:19.933Z,0.90
2023-02-20T16:08:47.181Z,1.00
2023-02-20T16:11:15.653Z,1.13
2023-02-20T16:13:46.165Z,1.00
2023-02-20T16:16:25.702Z,1.00
2023-02-20T16:18:56.625Z,1.08
2023-02-20T16:21:26.405Z,1.25
2023-02-20T16:23:53.588Z,0.88
2023-02-20T16:26:30.982Z,1.33
2023-02-20T16:29:02.841Z,1.13
2023-02-20T16:32:00.757Z,1.10
2023-02-20T16:34:37.364Z,1.30
2023-02-20T16:37:04.063Z,1.60
2023-02-20T16:39:30.697Z,1.48
2023-02-20T16:42:17.929Z,1.87
2023-02-20T16:44:50.878Z,1.70
2023-02-20T16:47:21.067Z,1.55
2023-02-20T16:49:49.998Z,1.85
2023-02-20T16:52:37.213Z,1.50
2023-02-20T16:55:17.738Z,1.90
2023-02-20T16:57:47.730Z,1.40
2023-02-20T17:00:20.225Z,1.50
2023-02-20T17:02:47.073Z,1.75
2023-02-20T17:05:17.022Z,1.50
2023-02-20T17:08:07.818Z,1.50
2023-02-20T17:10:35.095Z,1.40
2023-02-20T17:13:01.943Z,2.13
2023-02-20T17:15:28.629Z,1.98
2023-02-20T17:17:55.709Z,1.88
2023-02-20T17:20:26.782Z,1.67
2023-02-20T17:23:03.972Z,1.95
2023-02-20T17:25:32.117Z,2.03
2023-02-20T17:27:58.753Z,1.80
2023-02-20T17:30:26.216Z,1.90
2023-02-20T17:32:53.139Z,2.00
2023-02-20T17:35:19.811Z,1.90
2023-02-20T17:37:46.794Z,2.00
2023-02-20T17:40:15.224Z,2.22
2023-02-20T17:42:41.918Z,2.00
2023-02-20T17:45:10.080Z,2.30
2023-02-20T17:47:39.009Z,2.00
2023-02-20T17:50:06.012Z,2.00
2023-02-20T17:52:32.658Z,1.85
2023-02-20T17:55:00.117Z,2.72
2023-02-20T17:57:30.954Z,1.98
2023-02-20T17:59:59.750Z,2.30
2023-02-20T18:02:29.183Z,2.97
2023-02-20T18:04:57.733Z,3.10
2023-02-20T18:07:24.328Z,2.67
2023-02-20T18:09:51.117Z,2.72
2023-02-20T18:12:17.998Z,3.30
2023-02-20T18:14:45.655Z,3.03
2023-02-20T18:17:12.633Z,3.08
2023-02-20T18:19:39.391Z,2.88
2023-02-20T18:22:08.624Z,3.55
2023-02-20T18:24:38.060Z,2.50
2023-02-20T18:27:07.388Z,2.40
2023-02-20T18:29:34.055Z,2.80
2023-02-20T18:32:04.015Z,4.40
2023-02-20T18:34:31.396Z,3.50
2023-02-20T18:36:58.080Z,3.50
2023-02-20T18:39:25.491Z,3.30
2023-02-20T18:41:59.321Z,3.10
2023-02-20T18:44:28.988Z,3.33
2023-02-20T18:46:57.489Z,3.90
2023-02-20T18:49:24.137Z,4.15
2023-02-20T18:51:51.585Z,4.00
2023-02-20T18:54:27.992Z,4.00
2023-02-20T18:56:56.032Z,3.67
2023-02-20T18:59:23.815Z,4.13
2023-02-20T19:01:50.521Z,4.00
2023-02-20T19:04:17.237Z,3.95
2023-02-20T19:06:44.783Z,4.80
2023-02-20T19:09:16.751Z,4.13
2023-02-20T19:11:51.984Z,4.10
2023-02-20T19:14:19.999Z,3.97
2023-02-20T19:16:55.372Z,4.00
2023-02-20T19:19:27.416Z,4.00
2023-02-20T19:21:55.297Z,4.07
2023-02-20T19:24:22.429Z,4.53
2023-02-20T19:26:49.373Z,5.55
2023-02-20T19:29:16.033Z,6.35
2023-02-20T19:31:42.672Z,6.15
2023-02-20T19:34:10.223Z,6.10
2023-02-20T19:36:41.034Z,5.50
2023-02-20T19:39:08.028Z,5.05
2023-02-20T19:41:35.318Z,3.28
2023-02-20T19:44:02.163Z,4.18
2023-02-20T19:46:29.499Z,3.60
2023-02-20T19:48:56.160Z,2.70
2023-02-20T19:51:23.347Z,3.58
2023-02-20T19:53:50.498Z,3.92
2023-02-20T19:56:17.288Z,3.70
2023-02-20T19:58:44.407Z,4.32
2023-02-20T20:01:18.997Z,3.53
2023-02-20T20:03:49.640Z,3.83
2023-02-20T20:06:17.906Z,4.40
2023-02-20T20:09:09.352Z,3.78
2023-02-20T20:11:32.047Z,4.97
2023-02-20T20:13:58.656Z,4.50
2023-02-20T20:16:25.316Z,7.05
2023-02-20T20:18:53.300Z,7.10
2023-02-20T20:21:20.548Z,8.65
2023-02-20T20:23:47.428Z,9.18
2023-02-20T20:26:14.602Z,9.98
2023-02-20T20:28:41.427Z,9.65
2023-02-20T20:31:08.185Z,5.55
2023-02-20T20:33:34.848Z,4.47
2023-02-20T20:36:01.500Z,4.65
2023-02-20T20:38:28.172Z,4.65
2023-02-20T20:40:56.095Z,4.07
2023-02-20T20:43:22.677Z,3.40
2023-02-20T20:45:49.482Z,4.03
2023-02-20T20:48:17.666Z,3.15
2023-02-20T20:50:45.555Z,3.22
2023-02-20T20:53:16.106Z,3.25
2023-02-20T20:55:52.368Z,3.30
2023-02-20T20:58:19.081Z,2.60
2023-02-20T21:00:51.437Z,2.83
2023-02-20T21:03:18.620Z,1.95
2023-02-20T21:05:47.274Z,2.20
2023-02-20T21:08:14.046Z,2.10
2023-02-20T21:10:40.829Z,1.80
2023-02-20T21:13:07.511Z,2.33
2023-02-20T21:15:35.486Z,2.13
2023-02-20T21:18:02.541Z,2.00
2023-02-20T21:20:30.755Z,1.88
2023-02-20T21:23:01.920Z,1.60
2023-02-20T21:25:28.821Z,2.00
2023-02-20T21:27:56.940Z,2.03
2023-02-20T21:30:25.718Z,1.95
2023-02-20T21:32:53.011Z,1.90
2023-02-20T21:35:21.534Z,2.00
2023-02-20T21:37:49.833Z,2.25
2023-02-20T21:40:18.087Z,1.90
2023-02-20T21:43:05.832Z,1.75
2023-02-20T21:45:32.741Z,1.20
2023-02-20T21:47:59.344Z,1.10
2023-02-20T21:50:25.961Z,1.10
2023-02-20T21:52:52.526Z,0.98
2023-02-20T21:55:19.639Z,0.90
2023-02-20T21:57:46.391Z,0.80
2023-02-20T22:00:14.476Z,0.90
2023-02-20T22:02:41.207Z,0.88
2023-02-20T22:05:09.042Z,0.70
2023-02-20T22:07:54.699Z,0.68
2023-02-20T22:10:40.369Z,0.70
2023-02-20T22:13:25.409Z,0.80
2023-02-20T22:16:10.742Z,0.75
2023-02-20T22:18:56.036Z,0.77
2023-02-20T22:21:43.531Z,0.80
2023-02-20T22:24:37.670Z,0.80
2023-02-20T22:27:25.349Z,0.75
2023-02-20T22:30:10.804Z,0.70
2023-02-20T22:32:56.230Z,0.60
2023-02-20T22:35:42.382Z,0.70
2023-02-20T22:38:30.472Z,0.70
2023-02-20T22:41:15.814Z,0.65
2023-02-20T22:44:01.588Z,0.70
2023-02-20T22:46:50.049Z,0.90
2023-02-20T22:49:35.154Z,0.80
2023-02-20T22:52:23.639Z,0.70
2023-02-20T22:55:09.059Z,0.80
2023-02-20T22:57:54.511Z,0.70
2023-02-20T23:00:39.953Z,0.70
2023-02-20T23:03:25.088Z,0.70
2023-02-20T23:06:19.577Z,0.63
2023-02-20T23:09:08.406Z,0.90
2023-02-20T23:11:55.431Z,0.80
2023-02-20T23:14:41.017Z,0.90
2023-02-20T23:17:37.283Z,0.90
2023-02-20T23:20:28.944Z,0.82
2023-02-20T23:23:14.236Z,0.80
2023-02-20T23:26:00.011Z,0.82
2023-02-20T23:28:45.862Z,0.63
2023-02-20T23:31:32.537Z,0.70
2023-02-20T23:34:18.193Z,0.85
2023-02-20T23:37:08.505Z,0.70
2023-02-20T23:39:54.331Z,0.77
2023-02-20T23:42:42.471Z,0.80
2023-02-20T23:45:28.518Z,0.77
2023-02-20T23:48:13.810Z,0.70
2023-02-20T23:50:59.245Z,0.80
2023-02-20T23:53:44.375Z,0.90
2023-02-20T23:56:29.549Z,0.93
2023-02-20T23:59:14.977Z,0.70
